Search for airport 
image banner adimage banner adimage banner ad
image banner ad

02PA - Lag Iii

Located in Monroeville, United States

ICAO - 02PA, IATA -

Data provided by Airmate  

General information

Coordinates: N40°27'48" W79°46'5"
Elevation is 1070 feet MSL.
Magnetic variation is -09° East
View others Airports in Pennsylvania

Operational data

Special qualification required
Current time UTC:
Current local time:
Weather at : KAGC - Allegheny County ( 18 km )
METAR: KAGC 291453Z 22010KT 7SM CLR 24/20 A2995 RMK AO2 SLP135 T02440200 58006
TAF: KAGC 291126Z 2912/3012 16005KT P6SM BKN120 FM291600 23010G20KT P6SM -SHRA OVC035 TEMPO 2916/2918 3SM TSRA OVC025CB FM292000 24010G20KT P6SM VCTS BKN040CB FM300000 29010KT P6SM BKN040 FM300800 32005KT P6SM BKN020
View NOTAMs / SUP AIP / TFR affecting this airport [VIEW]
Communications frequencies: [VIEW]

Runways:

Airport contact information

Address: Monroeville United States

Satellite view of 02PA